Time;durP1;ratioP1;P1;durP2;ratioP2;P2;SDS_P1;SDS_P2;PMS_P1;PMS_P2;Temp;Humidity;BMP_temperature;BMP_pressure;BME280_temperature;BME280_humidity;BME280_pressure;Samples;Min_cycle;Max_cycle;Signal;HPM_P1;HPM_P2
2023/01/08 00:01:31;;;;;;;;;5.25;4.75;;;;;11.66;75.92;100161.06;5014977;28;45853;-74
2023/01/08 00:03:56;;;;;;;;;4.75;4.75;;;;;11.75;76.07;100165.91;5015122;28;45899;-75
2023/01/08 00:06:21;;;;;;;;;6.25;5.00;;;;;11.66;76.34;100166.41;5015325;28;45254;-75
2023/01/08 00:08:47;;;;;;;;;5.00;3.50;;;;;11.64;75.93;100146.00;5014103;28;45772;-75
2023/01/08 00:11:13;;;;;;;;;4.00;4.00;;;;;11.72;76.25;100152.66;5014878;28;45956;-75
2023/01/08 00:13:38;;;;;;;;;5.50;5.50;;;;;11.71;76.00;100155.44;5015101;28;45515;-75
2023/01/08 00:16:06;;;;;;;;;5.50;5.50;;;;;11.75;76.02;100149.78;5014933;28;45380;-74
2023/01/08 00:18:32;;;;;;;;;6.00;5.00;;;;;11.72;76.21;100149.97;5015318;28;45372;-73
2023/01/08 00:20:58;;;;;;;;;5.00;4.25;;;;;11.72;76.31;100149.09;5013940;28;45523;-75
2023/01/08 00:23:23;;;;;;;;;8.00;3.50;;;;;11.74;76.28;100141.78;5014500;28;45485;-75
2023/01/08 00:25:49;;;;;;;;;4.00;4.00;;;;;11.68;76.58;100144.84;5014646;28;45344;-74
2023/01/08 00:28:14;;;;;;;;;4.75;4.75;;;;;11.63;75.88;100131.72;5015418;28;45427;-74
2023/01/08 05:32:14;;;;;;;;;1.00;1.00;;;;;10.94;76.15;99967.75;5017702;28;45573;-74
2023/01/08 05:34:40;;;;;;;;;0.75;0.75;;;;;11.02;76.30;99980.69;5017959;28;45300;-76
2023/01/08 05:37:05;;;;;;;;;0.00;0.00;;;;;10.95;78.12;100001.66;5017707;28;45565;-77
2023/01/08 05:39:30;;;;;;;;;0.00;0.00;;;;;10.88;80.08;100048.56;5017308;28;46258;-75
2023/01/08 05:41:56;;;;;;;;;0.00;0.00;;;;;10.71;78.45;100040.63;4998683;28;45250;-76
2023/01/08 05:44:21;;;;;;;;;0.00;0.00;;;;;10.59;77.93;100026.13;5016882;28;45335;-77
2023/01/08 05:46:47;;;;;;;;;1.00;0.00;;;;;10.44;76.47;100029.66;4999324;28;46194;-77
2023/01/08 05:49:12;;;;;;;;;0.00;0.00;;;;;10.29;74.71;100030.53;5016797;28;46251;-75
2023/01/08 05:51:38;;;;;;;;;0.00;0.00;;;;;10.29;75.82;100025.19;5017014;28;45310;-77
2023/01/08 05:54:03;;;;;;;;;0.00;0.00;;;;;10.21;76.07;100009.50;5017789;28;45167;-75
2023/01/08 05:56:29;;;;;;;;;1.00;0.00;;;;;9.96;74.39;99983.19;5017365;28;45420;-79
2023/01/08 05:58:54;;;;;;;;;0.00;0.00;;;;;10.07;73.83;99999.53;5017479;28;45684;-73
2023/01/08 06:01:20;;;;;;;;;0.00;0.00;;;;;9.95;72.79;99994.88;5017522;28;45339;-75
2023/01/08 06:03:45;;;;;;;;;0.00;0.00;;;;;9.95;74.02;99992.22;5017453;28;45376;-72
2023/01/08 06:06:11;;;;;;;;;0.00;0.00;;;;;9.96;73.32;100006.44;5017172;28;45407;-72
2023/01/08 06:08:37;;;;;;;;;0.00;0.00;;;;;9.83;72.92;99979.50;5016630;28;45507;-76
2023/01/08 06:11:05;;;;;;;;;0.00;0.00;;;;;9.88;73.12;99990.78;5016928;28;45352;-76
2023/01/08 06:13:32;;;;;;;;;0.00;0.00;;;;;9.91;73.23;99992.44;5016954;28;45523;-76
2023/01/08 06:15:59;;;;;;;;;0.00;0.00;;;;;9.92;73.08;99997.72;5013720;28;45934;-77
2023/01/08 06:18:25;;;;;;;;;0.00;0.00;;;;;9.77;73.65;99979.84;5015168;28;45583;-76
2023/01/08 06:20:50;;;;;;;;;0.00;0.00;;;;;9.85;74.08;99990.97;5014761;28;45777;-77
2023/01/08 06:23:16;;;;;;;;;0.00;0.00;;;;;9.84;74.36;99986.56;5015590;28;45830;-75
2023/01/08 06:25:41;;;;;;;;;0.00;0.00;;;;;9.85;73.95;99994.53;5014834;28;45392;-76
2023/01/08 06:28:07;;;;;;;;;2.50;0.00;;;;;9.73;74.22;99991.63;5014751;28;45709;-75
2023/01/08 06:30:32;;;;;;;;;0.00;0.00;;;;;9.76;74.61;100003.06;5015370;28;45497;-76
2023/01/08 06:32:59;;;;;;;;;0.00;0.00;;;;;9.73;74.59;100002.34;5016541;28;45316;-78
2023/01/08 06:35:25;;;;;;;;;0.00;0.00;;;;;9.69;74.90;100006.16;5011625;28;45325;-76
2023/01/08 06:37:50;;;;;;;;;0.00;0.00;;;;;9.68;75.73;100005.28;5016614;28;46328;-75
2023/01/08 06:40:16;;;;;;;;;0.00;0.00;;;;;9.59;75.30;100010.25;5016551;28;45371;-75
2023/01/08 06:42:43;;;;;;;;;0.00;0.00;;;;;9.48;75.91;99990.28;5016815;28;45474;-76
2023/01/08 06:45:09;;;;;;;;;0.00;0.00;;;;;9.49;76.22;100013.44;5015853;28;46578;-76
2023/01/08 06:47:34;;;;;;;;;0.00;0.00;;;;;9.44;76.83;100002.09;5016412;28;45344;-76
2023/01/08 06:50:00;;;;;;;;;1.00;0.00;;;;;9.37;76.88;99995.34;5016444;28;45481;-76
2023/01/08 06:52:25;;;;;;;;;0.00;0.00;;;;;9.34;77.11;100000.00;5016645;28;45417;-77
2023/01/08 06:54:51;;;;;;;;;0.00;0.00;;;;;9.23;77.69;99989.84;5016051;28;45468;-76
2023/01/08 06:57:16;;;;;;;;;0.00;0.00;;;;;9.39;78.07;100017.53;4998489;28;48016;-75
2023/01/08 06:59:41;;;;;;;;;0.00;0.00;;;;;9.40;77.90;100015.72;5016283;28;45356;-77
2023/01/08 07:02:14;;;;;;;;;1.00;0.00;;;;;9.48;78.03;100016.19;5016662;28;45453;-75
2023/01/08 07:04:39;;;;;;;;;0.00;0.00;;;;;9.46;78.32;100000.19;5016286;28;45600;-75
2023/01/08 07:07:05;;;;;;;;;0.00;0.00;;;;;9.42;79.12;100006.69;5016054;28;46175;-76
2023/01/08 07:09:30;;;;;;;;;0.00;0.00;;;;;9.47;79.02;100011.78;5016319;28;45320;-77
2023/01/08 07:11:55;;;;;;;;;0.00;0.00;;;;;9.42;79.33;100012.03;5016395;28;45333;-75
2023/01/08 07:14:21;;;;;;;;;0.00;0.00;;;;;9.43;79.72;99995.03;5016334;28;45369;-75
2023/01/08 07:16:46;;;;;;;;;0.00;0.00;;;;;9.44;79.63;99991.38;5016315;28;45383;-75
2023/01/08 07:19:12;;;;;;;;;0.00;0.00;;;;;9.47;79.80;100001.94;5015928;28;45337;-74
2023/01/08 07:21:37;;;;;;;;;2.00;0.00;;;;;9.53;79.86;99992.69;5004001;28;45425;-76
2023/01/08 07:24:03;;;;;;;;;0.00;0.00;;;;;9.43;79.93;99972.75;5016000;28;45555;-74
2023/01/08 07:26:28;;;;;;;;;0.00;0.00;;;;;9.43;79.86;99970.09;5015872;28;45328;-75
2023/01/08 07:28:54;;;;;;;;;0.00;0.00;;;;;9.44;80.06;99977.16;5015898;28;45421;-76
2023/01/08 07:31:19;;;;;;;;;0.00;0.00;;;;;9.55;79.99;99987.28;5016219;28;45316;-77
2023/01/08 07:33:44;;;;;;;;;1.75;0.00;;;;;9.65;80.23;99996.53;5015713;28;45419;-75
2023/01/08 07:36:10;;;;;;;;;1.00;0.00;;;;;9.58;80.23;99987.13;5010630;28;45442;-76
2023/01/08 07:38:35;;;;;;;;;0.00;0.00;;;;;9.63;80.09;99996.63;5015995;28;45490;-76
2023/01/08 07:41:00;;;;;;;;;0.00;0.00;;;;;9.62;80.55;99997.56;5015201;28;45427;-77
2023/01/08 07:43:28;;;;;;;;;0.00;0.00;;;;;9.64;80.16;99982.28;5015757;28;45505;-75
2023/01/08 07:45:54;;;;;;;;;0.00;0.00;;;;;9.63;80.27;99975.22;4997865;28;47331;-77
2023/01/08 07:48:19;;;;;;;;;2.50;1.00;;;;;9.71;79.96;99989.03;5015724;28;45336;-76
2023/01/08 07:50:45;;;;;;;;;2.75;0.00;;;;;9.73;79.82;99986.28;5015979;28;45542;-76
2023/01/08 07:53:12;;;;;;;;;0.00;0.00;;;;;9.70;79.69;99987.31;5015715;28;45916;-77
2023/01/08 07:55:38;;;;;;;;;0.25;0.00;;;;;9.72;79.53;99969.34;5015558;28;45378;-75
2023/01/08 07:58:08;;;;;;;;;0.00;0.00;;;;;9.78;79.24;99979.72;5016000;28;45400;-77
2023/01/08 08:00:34;;;;;;;;;1.00;0.00;;;;;9.72;79.41;99963.16;5016447;28;45410;-77
2023/01/08 08:03:06;;;;;;;;;0.00;0.00;;;;;9.73;78.96;99962.19;5015755;28;45195;-76
2023/01/08 08:05:32;;;;;;;;;0.50;0.50;;;;;9.88;78.50;99983.63;5015754;28;45566;-76
2023/01/08 08:07:57;;;;;;;;;0.00;0.00;;;;;9.93;78.48;99986.06;5015180;28;45399;-76
2023/01/08 08:10:23;;;;;;;;;0.00;0.00;;;;;9.92;78.61;99976.31;5015170;28;45387;-75
2023/01/08 08:12:48;;;;;;;;;0.00;0.00;;;;;9.95;78.30;99977.97;5015189;28;45447;-76
2023/01/08 08:15:14;;;;;;;;;0.00;0.00;;;;;9.93;78.20;99966.47;5015413;28;46093;-76
2023/01/08 08:17:44;;;;;;;;;0.00;0.00;;;;;9.98;78.43;99988.47;5015434;28;45182;-76
2023/01/08 08:20:09;;;;;;;;;0.00;0.00;;;;;9.98;78.22;99978.63;5015233;28;45471;-75
2023/01/08 08:22:35;;;;;;;;;0.00;0.00;;;;;9.91;78.27;99946.94;5015252;28;45604;-76
2023/01/08 08:25:00;;;;;;;;;1.75;0.00;;;;;9.84;78.58;99936.56;4996979;28;48325;-75
2023/01/08 08:27:25;;;;;;;;;0.25;0.25;;;;;9.98;78.95;99973.28;5015126;28;45190;-77
2023/01/08 08:29:51;;;;;;;;;2.00;0.00;;;;;9.94;79.69;99965.53;5015288;28;45251;-75
2023/01/08 08:32:16;;;;;;;;;1.00;0.00;;;;;9.81;79.37;99934.06;5014597;28;45329;-78
2023/01/08 08:34:41;;;;;;;;;0.50;0.00;;;;;9.91;79.49;99955.84;5015309;28;46223;-77
2023/01/08 08:37:07;;;;;;;;;2.00;0.50;;;;;9.93;79.24;99953.94;5015752;28;45318;-75
2023/01/08 08:39:33;;;;;;;;;2.00;0.25;;;;;9.90;79.37;99932.69;5015935;28;45555;-76
2023/01/08 08:41:58;;;;;;;;;0.00;0.00;;;;;9.97;79.32;99954.63;5015120;28;45371;-76
2023/01/08 08:44:23;;;;;;;;;0.00;0.00;;;;;9.90;79.45;99932.69;5014459;28;46241;-76
2023/01/08 08:46:49;;;;;;;;;0.00;0.00;;;;;9.99;79.41;99945.56;5015829;28;45542;-76
2023/01/08 08:49:14;;;;;;;;;3.50;1.00;;;;;9.94;79.37;99923.53;5016005;28;45442;-76
2023/01/08 08:51:39;;;;;;;;;1.75;1.00;;;;;10.03;79.29;99939.09;5014909;28;45313;-75
2023/01/08 08:54:05;;;;;;;;;1.00;1.00;;;;;10.00;79.47;99936.56;4991852;28;46910;-75
2023/01/08 08:56:30;;;;;;;;;0.75;0.75;;;;;9.92;79.24;99921.88;5005934;28;45425;-75
2023/01/08 08:58:57;;;;;;;;;0.75;0.75;;;;;9.93;79.12;99924.50;5013647;28;45497;-77
2023/01/08 09:01:22;;;;;;;;;1.00;1.00;;;;;9.97;79.07;99934.06;5015614;28;45443;-76
2023/01/08 09:03:48;;;;;;;;;2.00;0.25;;;;;9.95;79.43;99938.66;4997084;28;48048;-78
2023/01/08 09:06:14;;;;;;;;;0.00;0.00;;;;;9.98;79.32;99930.44;5015086;28;45317;-76
2023/01/08 09:08:40;;;;;;;;;1.75;0.25;;;;;10.03;79.28;99940.91;5015726;28;45747;-77
2023/01/08 09:11:05;;;;;;;;;2.75;0.00;;;;;10.02;78.15;99926.66;5015188;28;45466;-76
2023/01/08 09:13:31;;;;;;;;;2.00;0.00;;;;;10.02;77.74;99942.72;5013784;28;46523;-80
2023/01/08 09:16:00;;;;;;;;;0.00;0.00;;;;;10.10;77.76;99955.66;5014924;28;45238;-78
2023/01/08 09:18:25;;;;;;;;;0.00;0.00;;;;;10.14;78.08;99946.50;5015158;28;45271;-76
2023/01/08 09:20:50;;;;;;;;;1.00;1.00;;;;;10.03;77.87;99931.06;5016294;28;45459;-79
2023/01/08 09:23:16;;;;;;;;;0.50;0.50;;;;;10.13;77.67;99944.75;4994683;28;46132;-77
2023/01/08 09:25:41;;;;;;;;;0.00;0.00;;;;;10.17;77.30;99949.91;5010217;28;45499;-77
2023/01/08 09:28:10;;;;;;;;;0.00;0.00;;;;;10.05;76.00;99926.47;5014147;28;45352;-78
2023/01/08 09:30:36;;;;;;;;;2.25;0.00;;;;;10.07;76.16;99939.75;5015812;28;45618;-77
2023/01/08 09:33:03;;;;;;;;;1.25;0.00;;;;;10.07;76.41;99931.72;5014330;28;46810;-77
2023/01/08 09:35:30;;;;;;;;;2.00;1.00;;;;;10.03;76.51;99922.16;4996373;28;46217;-78
2023/01/08 09:37:56;;;;;;;;;0.75;0.00;;;;;9.99;75.73;99926.81;5014899;28;45273;-76
2023/01/08 09:40:27;;;;;;;;;0.00;0.00;;;;;10.07;75.52;99943.31;5014315;28;45431;-76
2023/01/08 09:42:57;;;;;;;;;0.00;0.00;;;;;10.13;75.92;99942.09;5014936;28;46303;-75
2023/01/08 09:45:29;;;;;;;;;0.00;0.00;;;;;10.17;75.65;99943.66;5013965;28;45432;-76
2023/01/08 09:47:57;;;;;;;;;0.00;0.00;;;;;10.13;75.14;99934.91;4997369;28;45526;-77
2023/01/08 09:50:26;;;;;;;;;0.00;0.00;;;;;10.23;75.47;99949.56;5015458;28;45526;-77
2023/01/08 09:52:52;;;;;;;;;0.00;0.00;;;;;10.14;75.46;99939.31;5014827;28;45479;-77
2023/01/08 09:55:18;;;;;;;;;0.00;0.00;;;;;10.28;75.23;99956.47;5015020;28;45477;-77
2023/01/08 09:57:45;;;;;;;;;0.25;0.25;;;;;10.24;75.54;99947.75;5016143;28;45370;-79
2023/01/08 10:00:18;;;;;;;;;0.00;0.00;;;;;10.22;74.84;99957.66;4996628;28;46202;-78
2023/01/08 10:02:44;;;;;;;;;0.00;0.00;;;;;10.12;74.98;99949.25;5013968;28;46316;-79
2023/01/08 10:05:15;;;;;;;;;0.00;0.00;;;;;9.95;75.69;99927.94;5016765;28;45171;-76
2023/01/08 10:07:41;;;;;;;;;0.00;0.00;;;;;10.08;75.21;99930.78;5017190;28;45411;-77
2023/01/08 10:10:29;;;;;;;;;0.50;0.50;;;;;10.13;75.81;99942.94;4999131;28;47085;-78
2023/01/08 10:12:55;;;;;;;;;0.00;0.00;;;;;9.97;75.42;99907.28;5016810;28;46162;-78
2023/01/08 10:15:21;;;;;;;;;0.00;0.00;;;;;10.19;75.51;99957.88;5017194;28;45275;-79
2023/01/08 10:17:58;;;;;;;;;1.50;0.00;;;;;10.10;75.64;99928.88;5017212;28;45520;-78
2023/01/08 10:20:25;;;;;;;;;0.00;0.00;;;;;10.05;75.82;99918.41;5016989;28;45443;-78
2023/01/08 10:22:55;;;;;;;;;0.25;0.25;;;;;10.21;75.76;99940.72;5017628;28;45490;-79
2023/01/08 10:25:24;;;;;;;;;2.00;0.00;;;;;10.21;75.17;99923.78;4998957;28;45354;-74
2023/01/08 10:28:01;;;;;;;;;2.00;0.00;;;;;10.24;75.47;99919.13;5016844;28;45440;-77
2023/01/08 10:30:29;;;;;;;;;1.00;1.00;;;;;10.39;74.75;99935.28;5016807;28;45549;-75
2023/01/08 10:32:57;;;;;;;;;4.00;0.00;;;;;10.40;74.74;99926.28;5016637;28;46142;-80
2023/01/08 10:35:38;;;;;;;;;0.50;0.50;;;;;10.45;74.70;99922.41;5016868;28;45356;-77
2023/01/08 10:38:04;;;;;;;;;0.00;0.00;;;;;10.47;74.14;99909.75;5017198;28;45356;-73
2023/01/08 10:40:47;;;;;;;;;1.00;1.00;;;;;10.58;74.44;99918.03;5016629;28;45325;-79
2023/01/08 10:43:17;;;;;;;;;1.50;0.25;;;;;10.55;73.29;99904.81;5016947;28;45453;-79
2023/01/08 10:45:53;;;;;;;;;0.50;0.50;;;;;10.63;73.75;99911.56;5016330;28;45798;-80
2023/01/08 10:48:19;;;;;;;;;0.50;0.00;;;;;10.71;73.50;99893.19;5015689;28;45450;-80
2023/01/08 10:50:45;;;;;;;;;3.00;1.50;;;;;10.76;73.44;99886.59;5016725;28;45319;-80
2023/01/08 10:53:23;;;;;;;;;2.75;1.00;;;;;10.63;72.18;99823.09;5016602;28;45359;-79
2023/01/08 10:56:01;;;;;;;;;1.00;1.00;;;;;11.07;72.35;99898.97;4998920;28;45378;-81
2023/01/08 10:58:28;;;;;;;;;1.00;1.00;;;;;11.00;72.27;99900.31;5017198;28;45758;-80
2023/01/08 11:00:54;;;;;;;;;1.50;0.00;;;;;10.95;71.47;99884.53;5016591;28;45476;-78
2023/01/08 11:03:24;;;;;;;;;0.50;0.50;;;;;11.09;72.03;99891.72;5016171;28;45435;-78
2023/01/08 11:05:50;;;;;;;;;2.00;0.00;;;;;11.03;71.28;99878.69;5016063;28;45431;-78
2023/01/08 11:08:18;;;;;;;;;2.00;1.00;;;;;10.99;71.18;99864.59;5017666;28;45325;-80
2023/01/08 11:10:53;;;;;;;;;1.00;0.00;;;;;10.95;70.47;99841.63;5017097;28;45372;-78
2023/01/08 11:13:19;;;;;;;;;2.00;0.50;;;;;11.17;69.97;99865.28;4999212;28;47571;-79
2023/01/08 11:15:45;;;;;;;;;1.00;1.00;;;;;11.23;69.38;99859.50;5016231;28;45321;-80
2023/01/08 11:18:16;;;;;;;;;1.00;1.00;;;;;11.26;68.83;99837.00;5016993;28;45385;-77
2023/01/08 11:20:42;;;;;;;;;2.50;1.00;;;;;11.31;69.15;99856.38;5016112;28;45514;-79
2023/01/08 11:23:19;;;;;;;;;2.50;0.00;;;;;11.51;68.39;99861.34;5017543;28;45422;-81
2023/01/08 11:26:09;;;;;;;;;2.00;0.00;;;;;11.77;68.40;99845.41;5016428;28;45470;-77
2023/01/08 11:29:11;;;;;;;;;2.00;0.50;;;;;12.32;65.74;99845.31;4998451;28;45237;-78
2023/01/08 11:31:53;;;;;;;;;0.00;0.00;;;;;12.63;64.49;99828.81;4992285;28;45247;-83
2023/01/08 11:34:21;;;;;;;;;2.00;1.00;;;;;12.73;63.95;99820.97;5016064;28;45415;-79
2023/01/08 11:36:53;;;;;;;;;0.50;0.00;;;;;12.62;63.29;99786.75;5011738;28;45404;-78
2023/01/08 11:39:18;;;;;;;;;2.00;0.00;;;;;12.49;64.26;99759.00;5016933;28;45485;-79
2023/01/08 11:41:50;;;;;;;;;0.50;0.50;;;;;12.72;63.46;99803.09;5015862;28;45292;-78
2023/01/08 11:44:38;;;;;;;;;0.00;0.00;;;;;12.65;63.82;99796.44;5015988;28;45335;-78
2023/01/08 11:47:36;;;;;;;;;1.00;1.00;;;;;12.51;64.28;99794.69;5016406;28;45391;-78
2023/01/08 11:50:01;;;;;;;;;1.25;1.25;;;;;12.44;64.66;99790.69;5010105;28;45571;-82
2023/01/08 11:52:55;;;;;;;;;2.00;0.75;;;;;12.49;64.93;99786.75;5018471;28;45503;-79
2023/01/08 11:55:51;;;;;;;;;1.50;1.00;;;;;12.54;64.75;99781.03;5016288;28;45470;-78
2023/01/08 11:58:38;;;;;;;;;2.25;1.00;;;;;12.58;65.05;99774.50;5018152;28;45348;-80
2023/01/08 12:01:09;;;;;;;;;0.00;0.00;;;;;12.55;64.97;99769.31;5016421;28;45388;-80
2023/01/08 12:03:44;;;;;;;;;0.00;0.00;;;;;12.41;65.01;99759.53;5016663;28;45398;-78
2023/01/08 12:06:39;;;;;;;;;2.00;1.00;;;;;12.16;66.03;99742.50;5015353;28;46256;-78
2023/01/08 12:09:07;;;;;;;;;1.00;0.50;;;;;12.09;66.87;99755.47;4997704;28;45497;-76
2023/01/08 12:11:43;;;;;;;;;0.00;0.00;;;;;11.94;67.46;99749.31;5015263;28;45555;-75
2023/01/08 12:14:29;;;;;;;;;1.75;1.00;;;;;11.83;67.81;99722.31;5015015;28;45395;-80
2023/01/08 12:17:14;;;;;;;;;1.00;1.00;;;;;11.80;68.19;99735.09;4997315;28;46648;-76
2023/01/08 12:20:14;;;;;;;;;3.50;0.50;;;;;11.79;68.46;99725.31;5014812;28;45363;-76
2023/01/08 12:23:10;;;;;;;;;0.00;0.00;;;;;11.76;67.95;99723.69;4967147;28;45557;-75
2023/01/08 12:26:31;;;;;;;;;0.75;0.75;;;;;11.67;68.39;99698.28;5014728;28;45548;-74
2023/01/08 12:29:24;;;;;;;;;1.00;1.00;;;;;11.84;68.31;99691.81;5000197;28;48365;-74
2023/01/08 12:32:09;;;;;;;;;0.00;0.00;;;;;11.90;67.44;99682.50;5014854;28;45446;-76
2023/01/08 12:34:55;;;;;;;;;1.25;1.00;;;;;11.95;67.44;99683.91;5015102;28;45425;-74
2023/01/08 12:37:30;;;;;;;;;0.50;0.50;;;;;11.98;67.69;99674.78;5012408;28;45570;-76
2023/01/08 12:40:06;;;;;;;;;2.25;0.50;;;;;11.97;67.75;99676.59;5014570;28;45954;-76
2023/01/08 12:42:37;;;;;;;;;1.00;1.00;;;;;12.00;67.73;99681.75;5015071;28;45537;-76
2023/01/08 12:45:06;;;;;;;;;0.00;0.00;;;;;11.96;67.18;99665.97;4996660;28;45507;-75
2023/01/08 12:47:36;;;;;;;;;1.00;1.00;;;;;11.78;67.19;99618.88;5014627;28;45455;-76
2023/01/08 12:50:13;;;;;;;;;2.00;0.50;;;;;11.99;67.31;99661.22;5014217;28;46362;-76
2023/01/08 12:52:52;;;;;;;;;0.50;0.00;;;;;11.89;67.34;99654.78;5014630;28;45174;-77
2023/01/08 12:55:44;;;;;;;;;2.00;0.00;;;;;11.75;67.56;99636.91;5014031;28;45511;-76
2023/01/08 12:58:16;;;;;;;;;0.00;0.00;;;;;11.76;67.79;99640.47;5014620;28;45301;-73
2023/01/08 13:00:54;;;;;;;;;0.25;0.25;;;;;11.69;68.37;99633.75;5014631;28;46211;-76
2023/01/08 13:03:27;;;;;;;;;0.00;0.00;;;;;11.71;68.85;99634.53;5014676;28;45503;-76
2023/01/08 13:06:06;;;;;;;;;0.00;0.00;;;;;11.85;68.61;99622.84;5014768;28;45365;-78
2023/01/08 13:08:34;;;;;;;;;1.00;0.00;;;;;11.87;67.77;99588.72;5015200;28;45333;-75
2023/01/08 13:11:01;;;;;;;;;0.00;0.00;;;;;11.99;67.19;99618.25;5014326;28;45569;-76
2023/01/08 13:13:40;;;;;;;;;8.00;1.00;;;;;12.06;67.59;99602.59;5013348;28;45387;-76
2023/01/08 13:16:18;;;;;;;;;9.00;3.00;;;;;12.11;67.08;99589.69;5013496;28;45541;-78
2023/01/08 13:18:58;;;;;;;;;0.00;0.00;;;;;12.03;67.25;99581.28;5014701;28;45270;-75
2023/01/08 13:21:30;;;;;;;;;1.75;1.00;;;;;12.21;66.63;99588.06;5013881;28;45476;-79
2023/01/08 13:24:33;;;;;;;;;0.25;0.25;;;;;12.13;66.48;99559.06;5013925;28;45344;-75
2023/01/08 13:27:26;;;;;;;;;1.25;1.00;;;;;12.04;66.83;99529.28;5011726;28;45483;-76
2023/01/08 13:29:52;;;;;;;;;1.00;1.00;;;;;12.25;66.21;99581.47;5010412;28;45444;-75
2023/01/08 13:32:45;;;;;;;;;0.50;0.50;;;;;12.24;66.74;99571.72;5009389;28;46854;-80
2023/01/08 13:35:13;;;;;;;;;0.50;0.50;;;;;12.30;66.63;99576.66;5008806;28;45248;-76
2023/01/08 13:37:39;;;;;;;;;1.00;0.00;;;;;12.28;66.60;99566.97;5014441;28;45340;-77
2023/01/08 13:40:42;;;;;;;;;0.75;0.75;;;;;12.29;66.12;99566.00;4999131;28;46353;-73
2023/01/08 13:43:14;;;;;;;;;0.00;0.00;;;;;12.40;66.02;99552.66;5017419;28;45496;-75
2023/01/08 13:45:40;;;;;;;;;0.50;0.50;;;;;12.43;66.29;99544.38;5017216;28;45241;-73
2023/01/08 13:48:23;;;;;;;;;0.00;0.00;;;;;12.52;65.72;99543.69;5004832;28;45430;-76
2023/01/08 13:50:49;;;;;;;;;0.00;0.00;;;;;12.51;65.57;99550.03;5016943;28;45564;-74
2023/01/08 13:53:14;;;;;;;;;1.00;1.00;;;;;12.45;65.18;99564.81;5017624;28;46230;-75
2023/01/08 13:55:47;;;;;;;;;0.00;0.00;;;;;12.34;65.33;99547.72;5016423;28;45347;-77
2023/01/08 13:58:20;;;;;;;;;0.00;0.00;;;;;12.34;65.35;99547.72;4998985;28;45285;-75
2023/01/08 14:00:49;;;;;;;;;1.00;1.00;;;;;12.30;65.45;99546.25;4998326;28;47522;-77
2023/01/08 14:03:21;;;;;;;;;2.00;1.00;;;;;12.30;65.47;99527.44;5016072;28;45392;-74
2023/01/08 14:05:46;;;;;;;;;2.25;0.00;;;;;12.26;65.39;99525.91;5015441;28;45507;-75
2023/01/08 14:08:30;;;;;;;;;0.00;0.00;;;;;12.18;65.73;99501.44;5016214;28;45344;-75
2023/01/08 14:10:55;;;;;;;;;1.75;0.00;;;;;12.19;66.01;99500.47;5016872;28;45378;-76
2023/01/08 14:13:30;;;;;;;;;0.00;0.00;;;;;12.22;66.54;99519.06;5017127;28;45440;-75
2023/01/08 14:16:00;;;;;;;;;0.00;0.00;;;;;12.07;66.75;99500.41;5017039;28;45298;-77
2023/01/08 14:18:27;;;;;;;;;0.50;0.50;;;;;12.14;67.43;99508.88;5017491;28;45290;-76
2023/01/08 14:20:52;;;;;;;;;0.25;0.25;;;;;12.13;67.61;99508.00;5016668;28;46100;-75
2023/01/08 14:23:26;;;;;;;;;2.00;0.00;;;;;12.21;67.38;99507.44;5016706;28;46311;-74
2023/01/08 14:25:52;;;;;;;;;0.50;0.50;;;;;12.20;67.71;99519.16;5016717;28;45381;-75
2023/01/08 14:28:21;;;;;;;;;1.00;1.00;;;;;12.13;68.41;99513.38;5015894;28;45324;-75
2023/01/08 14:30:52;;;;;;;;;0.50;0.50;;;;;12.04;69.41;99502.44;5016118;28;45563;-75
2023/01/08 14:33:38;;;;;;;;;0.75;0.75;;;;;12.08;69.39;99502.09;5015174;28;47765;-75
2023/01/08 14:36:06;;;;;;;;;1.50;0.50;;;;;12.04;69.97;99491.69;5011944;28;45974;-75
2023/01/08 14:38:32;;;;;;;;;2.25;1.00;;;;;12.02;69.72;99491.78;4999067;28;45367;-75
2023/01/08 14:41:04;;;;;;;;;0.50;0.50;;;;;11.86;69.61;99474.19;5016590;28;45346;-77
2023/01/08 14:43:37;;;;;;;;;2.25;1.00;;;;;11.90;70.03;99486.47;5015655;28;47277;-76
2023/01/08 14:46:03;;;;;;;;;1.75;1.00;;;;;11.84;70.23;99473.44;5016633;28;45412;-75
2023/01/08 14:48:41;;;;;;;;;0.00;0.00;;;;;11.85;70.07;99464.41;5016536;28;45556;-74
2023/01/08 14:51:12;;;;;;;;;1.00;1.00;;;;;11.87;70.04;99475.91;5015371;28;45533;-74
2023/01/08 14:53:43;;;;;;;;;0.25;0.00;;;;;11.82;70.44;99478.94;5016081;28;45407;-76
2023/01/08 14:56:16;;;;;;;;;0.00;0.00;;;;;11.67;71.07;99448.63;4998277;28;45403;-74
2023/01/08 14:58:44;;;;;;;;;1.25;1.25;;;;;11.73;70.95;99461.63;5015162;28;45502;-75
2023/01/08 15:01:19;;;;;;;;;1.50;0.50;;;;;11.87;71.41;99467.88;5016273;28;45238;-77
2023/01/08 15:03:47;;;;;;;;;2.00;0.00;;;;;11.92;70.63;99460.31;5016659;28;45406;-74
2023/01/08 15:06:33;;;;;;;;;0.50;0.50;;;;;11.90;71.33;99465.81;5016082;28;45578;-74
2023/01/08 15:08:58;;;;;;;;;0.00;0.00;;;;;11.90;71.45;99467.66;5015781;28;45452;-75
2023/01/08 15:11:30;;;;;;;;;3.00;1.50;;;;;11.75;71.19;99437.38;5015894;28;45242;-76
2023/01/08 15:13:56;;;;;;;;;1.00;1.00;;;;;11.87;71.78;99475.91;5016168;28;45463;-74
2023/01/08 15:16:37;;;;;;;;;1.00;1.00;;;;;11.81;71.99;99468.31;5016341;28;45262;-76
2023/01/08 15:19:06;;;;;;;;;0.25;0.25;;;;;11.79;71.81;99473.78;5016239;28;45273;-75
2023/01/08 15:21:33;;;;;;;;;0.50;0.50;;;;;11.78;71.74;99458.63;5015930;28;45614;-76
2023/01/08 15:23:59;;;;;;;;;1.25;1.00;;;;;11.76;71.82;99447.13;5011857;28;47183;-75
2023/01/08 15:26:26;;;;;;;;;3.00;2.00;;;;;11.80;71.77;99463.91;5015702;28;45475;-77
2023/01/08 15:28:55;;;;;;;;;2.75;2.75;;;;;11.67;71.85;99439.72;5015993;28;45397;-75
2023/01/08 15:31:43;;;;;;;;;2.25;2.25;;;;;11.79;71.62;99456.81;4997828;28;46392;-75
2023/01/08 15:34:09;;;;;;;;;0.50;0.50;;;;;11.71;71.68;99454.63;5015762;28;46171;-76
2023/01/08 15:36:34;;;;;;;;;1.00;1.00;;;;;11.71;72.47;99462.69;5002789;28;45342;-75
2023/01/08 15:39:00;;;;;;;;;1.00;1.00;;;;;11.69;72.63;99445.84;4998162;28;45376;-76
2023/01/08 15:44:18;;;;;;;;;1.00;1.00;;;;;11.64;72.44;99434.56;5015155;28;45780;-75
2023/01/08 15:46:43;;;;;;;;;1.00;1.00;;;;;11.70;72.04;99424.25;5016357;28;45384;-75
2023/01/08 15:49:10;;;;;;;;;2.00;0.00;;;;;11.64;71.65;99418.47;5017154;28;45518;-74
2023/01/08 15:51:41;;;;;;;;;0.00;0.00;;;;;11.67;71.83;99429.81;5016569;28;45549;-76
2023/01/08 15:54:10;;;;;;;;;1.75;1.75;;;;;11.63;71.89;99406.00;5016077;28;45494;-75
2023/01/08 15:56:35;;;;;;;;;1.00;1.00;;;;;11.62;72.09;99415.03;5015474;28;45348;-75
2023/01/08 15:59:01;;;;;;;;;1.50;1.00;;;;;11.66;72.16;99414.69;5015694;28;45318;-75
2023/01/08 16:01:27;;;;;;;;;2.00;2.00;;;;;11.66;71.74;99408.44;5015103;28;45613;-76
2023/01/08 16:03:52;;;;;;;;;2.00;0.50;;;;;11.57;72.26;99404.59;5015559;28;46261;-76
2023/01/08 16:06:18;;;;;;;;;1.00;0.00;;;;;11.57;72.63;99398.41;5015327;28;46063;-76
2023/01/08 16:08:44;;;;;;;;;2.00;2.00;;;;;11.60;72.83;99398.16;5015685;28;45563;-75
2023/01/08 16:11:11;;;;;;;;;1.75;1.00;;;;;11.50;72.88;99383.69;5014937;28;45529;-76
2023/01/08 16:13:37;;;;;;;;;2.00;0.00;;;;;11.55;72.71;99379.72;5015279;28;46092;-75
2023/01/08 16:16:10;;;;;;;;;3.25;1.00;;;;;11.37;73.26;99360.41;5014980;28;45463;-76
2023/01/08 16:18:37;;;;;;;;;4.00;2.00;;;;;11.47;73.35;99391.97;5015228;28;45364;-75
2023/01/08 16:21:03;;;;;;;;;3.75;3.75;;;;;11.45;74.13;99393.91;5014836;28;45648;-75
2023/01/08 16:23:29;;;;;;;;;3.50;2.00;;;;;11.28;73.77;99352.16;4996923;28;47410;-76
2023/01/08 16:25:54;;;;;;;;;2.25;2.00;;;;;11.48;74.11;99378.44;5014758;28;45344;-78
2023/01/08 16:28:20;;;;;;;;;2.00;2.00;;;;;11.53;73.67;99373.59;5015267;28;45316;-76
2023/01/08 16:30:45;;;;;;;;;3.50;1.00;;;;;11.48;73.99;99383.81;5013543;28;46449;-76
2023/01/08 16:33:11;;;;;;;;;3.00;2.00;;;;;11.26;73.78;99340.66;5014603;28;46169;-75
2023/01/08 16:35:36;;;;;;;;;2.00;1.00;;;;;11.45;74.02;99373.28;5009626;28;45310;-75
2023/01/08 16:38:01;;;;;;;;;1.75;1.75;;;;;11.48;74.11;99367.72;5015267;28;45371;-76
2023/01/08 16:40:26;;;;;;;;;2.50;1.25;;;;;11.45;73.49;99359.00;5014589;28;45419;-75
2023/01/08 16:42:52;;;;;;;;;2.50;1.50;;;;;11.47;73.73;99368.69;5014753;28;46078;-76
2023/01/08 16:45:17;;;;;;;;;2.00;0.25;;;;;11.45;73.50;99362.56;5014580;28;45491;-75
2023/01/08 16:47:42;;;;;;;;;0.00;0.00;;;;;11.46;73.68;99348.16;5015019;28;45325;-73
2023/01/08 16:50:10;;;;;;;;;2.00;2.00;;;;;11.41;74.49;99350.31;5014707;28;45609;-75
2023/01/08 16:52:37;;;;;;;;;0.50;0.50;;;;;11.31;74.47;99338.53;4997275;28;46516;-76